Time;durP1;ratioP1;P1;durP2;ratioP2;P2;SDS_P1;SDS_P2;PMS_P1;PMS_P2;Temp;Humidity;BMP_temperature;BMP_pressure;BME280_temperature;BME280_humidity;BME280_pressure;Samples;Min_cycle;Max_cycle;Signal;HPM_P1;HPM_P2
2022/11/30 00:00:05;;;;;;;;;;;3.10;99.90;;;;;;5022302;28;20427;-81
2022/11/30 00:02:30;;;;;;;;;;;3.10;99.90;;;;;;5038183;28;19913;-80
2022/11/30 00:04:56;;;;;;;;;;;3.10;99.90;;;;;;5038493;28;19920;-80
2022/11/30 00:07:21;;;;;;;;;;;3.20;99.90;;;;;;5021547;28;20050;-81
2022/11/30 00:09:47;;;;;;;;;;;3.20;99.90;;;;;;5056096;28;19923;-81
2022/11/30 00:12:12;;;;;;;;;;;3.10;99.90;;;;;;5056367;28;19916;-81
2022/11/30 00:14:38;;;;;;;;;;;3.10;99.90;;;;;;5056816;28;19913;-81
2022/11/30 00:17:04;;;;;;;;;;;3.10;99.90;;;;;;5046486;28;19917;-80
2022/11/30 00:19:29;;;;;;;;;;;3.10;99.90;;;;;;5030137;28;19913;-81
2022/11/30 00:21:55;;;;;;;;;;;3.10;99.90;;;;;;5038228;28;20007;-81
2022/11/30 00:24:20;;;;;;;;;;;3.10;99.90;;;;;;5038611;28;19920;-81
2022/11/30 00:26:46;;;;;;;;;;;3.00;99.90;;;;;;5040761;28;19913;-81
2022/11/30 00:29:12;;;;;;;;;;;3.00;99.90;;;;;;5042596;28;19917;-80
2022/11/30 00:31:37;;;;;;;;;;;3.10;99.90;;;;;;5046422;28;19917;-80
2022/11/30 00:34:03;;;;;;;;;;;3.00;99.90;;;;;;5041089;28;19913;-80
2022/11/30 00:36:28;;;;;;;;;;;3.00;99.90;;;;;;5029897;28;19920;-81
2022/11/30 00:38:54;;;;;;;;;;;3.00;99.90;;;;;;5037911;28;19924;-81
2022/11/30 00:41:19;;;;;;;;;;;3.00;99.90;;;;;;5037862;28;19913;-80
2022/11/30 00:43:45;;;;;;;;;;;3.00;99.90;;;;;;5037810;28;19963;-80
2022/11/30 00:46:11;;;;;;;;;;;3.00;99.90;;;;;;5041678;28;19919;-81
2022/11/30 00:48:37;;;;;;;;;;;3.00;99.90;;;;;;5063193;28;20039;-80
2022/11/30 00:51:03;;;;;;;;;;;3.00;99.90;;;;;;5046016;28;19919;-80
2022/11/30 00:53:29;;;;;;;;;;;3.00;99.90;;;;;;5054815;28;20312;-81
2022/11/30 00:55:54;;;;;;;;;;;3.00;99.90;;;;;;5055678;28;20393;-81
2022/11/30 00:58:20;;;;;;;;;;;3.00;99.90;;;;;;5037945;28;20357;-82
2022/11/30 01:00:46;;;;;;;;;;;3.10;99.90;;;;;;5055517;28;19913;-81
2022/11/30 01:03:12;;;;;;;;;;;3.10;99.90;;;;;;5051402;28;19917;-82
2022/11/30 01:05:38;;;;;;;;;;;3.00;99.90;;;;;;5066962;28;19913;-82
2022/11/30 01:08:04;;;;;;;;;;;3.00;99.90;;;;;;5041452;28;19932;-82
2022/11/30 01:10:30;;;;;;;;;;;3.00;99.90;;;;;;5056777;28;19908;-82
2022/11/30 01:12:56;;;;;;;;;;;3.00;99.90;;;;;;5066554;28;19913;-80
2022/11/30 01:15:22;;;;;;;;;;;3.00;99.90;;;;;;5037942;28;19979;-81
2022/11/30 01:17:47;;;;;;;;;;;3.00;99.90;;;;;;5055341;28;19909;-81
2022/11/30 01:20:13;;;;;;;;;;;3.00;99.90;;;;;;5055649;28;19909;-81
2022/11/30 01:22:38;;;;;;;;;;;3.00;99.90;;;;;;5040238;28;19909;-81
2022/11/30 01:25:04;;;;;;;;;;;3.00;99.90;;;;;;5034407;28;19917;-81
2022/11/30 01:27:30;;;;;;;;;;;3.00;99.90;;;;;;5018155;28;20421;-81
2022/11/30 01:29:55;;;;;;;;;;;3.00;99.90;;;;;;5035505;28;19916;-81
2022/11/30 01:32:21;;;;;;;;;;;3.00;99.90;;;;;;5017270;28;20015;-81
2022/11/30 01:34:47;;;;;;;;;;;3.00;99.90;;;;;;5035009;28;19960;-81
2022/11/30 01:37:12;;;;;;;;;;;2.90;99.90;;;;;;5035324;28;19920;-81
2022/11/30 01:39:38;;;;;;;;;;;3.00;99.90;;;;;;5017587;28;19909;-81
2022/11/30 01:42:03;;;;;;;;;;;3.00;99.90;;;;;;5036727;28;19914;-81
2022/11/30 01:44:29;;;;;;;;;;;3.00;99.90;;;;;;5021291;28;19978;-81
2022/11/30 01:46:57;;;;;;;;;;;3.00;99.90;;;;;;5054209;28;19909;-81
2022/11/30 01:49:30;;;;;;;;;;;3.00;99.90;;;;;;5035537;28;19909;-81
2022/11/30 01:52:00;;;;;;;;;;;3.00;99.90;;;;;;5043970;28;19913;-81
2022/11/30 01:54:29;;;;;;;;;;;3.00;99.90;;;;;;5033606;28;19916;-81
2022/11/30 01:56:58;;;;;;;;;;;3.00;99.90;;;;;;5033461;28;20055;-81
2022/11/30 01:59:24;;;;;;;;;;;3.00;99.90;;;;;;5015813;28;19963;-80
2022/11/30 02:01:51;;;;;;;;;;;3.00;99.90;;;;;;5038656;28;19908;-81
2022/11/30 02:04:21;;;;;;;;;;;3.00;99.90;;;;;;5048432;28;19909;-80
2022/11/30 02:06:48;;;;;;;;;;;3.00;99.90;;;;;;5059428;28;19916;-81
2022/11/30 02:09:14;;;;;;;;;;;2.90;99.90;;;;;;5033053;28;19935;-81
2022/11/30 02:11:39;;;;;;;;;;;3.00;99.90;;;;;;5052557;28;19912;-81
2022/11/30 02:14:12;;;;;;;;;;;2.90;99.90;;;;;;5047308;28;19966;-81
2022/11/30 02:16:38;;;;;;;;;;;2.90;99.90;;;;;;5062239;28;20020;-81
2022/11/30 02:19:29;;;;;;;;;;;2.90;99.90;;;;;;5046139;28;20011;-81
2022/11/30 02:22:01;;;;;;;;;;;2.90;99.90;;;;;;5014241;28;19908;-81
2022/11/30 02:24:45;;;;;;;;;;;2.90;99.90;;;;;;5060628;28;19947;-80
2022/11/30 02:27:11;;;;;;;;;;;2.90;99.90;;;;;;5053041;28;20328;-80
2022/11/30 02:29:36;;;;;;;;;;;2.90;99.90;;;;;;5048495;28;19909;-80
2022/11/30 02:32:02;;;;;;;;;;;2.90;99.90;;;;;;5059436;28;19912;-80
2022/11/30 02:34:29;;;;;;;;;;;2.90;99.90;;;;;;5059345;28;19908;-80
2022/11/30 02:36:55;;;;;;;;;;;2.90;99.90;;;;;;5077411;28;19920;-81
2022/11/30 02:39:21;;;;;;;;;;;3.00;99.90;;;;;;5056288;28;19915;-80
2022/11/30 02:41:46;;;;;;;;;;;3.00;99.90;;;;;;5043871;28;20281;-80
2022/11/30 02:44:12;;;;;;;;;;;3.00;99.90;;;;;;5068129;28;19920;-81
2022/11/30 02:46:38;;;;;;;;;;;3.00;99.90;;;;;;5057445;28;19979;-80
2022/11/30 02:49:07;;;;;;;;;;;3.00;99.90;;;;;;5056916;28;19913;-81
2022/11/30 02:51:34;;;;;;;;;;;3.00;99.90;;;;;;5057220;28;19918;-81
2022/11/30 02:54:00;;;;;;;;;;;3.00;99.90;;;;;;5056980;28;19909;-80
2022/11/30 02:56:25;;;;;;;;;;;3.00;99.90;;;;;;5022587;28;19913;-81
2022/11/30 02:58:51;;;;;;;;;;;3.10;99.90;;;;;;5022957;28;19913;-80
2022/11/30 03:01:17;;;;;;;;;;;3.10;99.90;;;;;;5057268;28;19916;-80
2022/11/30 03:03:44;;;;;;;;;;;3.00;99.90;;;;;;5056491;28;20458;-80
2022/11/30 03:06:10;;;;;;;;;;;3.00;99.90;;;;;;5022676;28;20392;-80
2022/11/30 03:08:36;;;;;;;;;;;3.00;99.90;;;;;;5038903;28;19920;-80
2022/11/30 03:11:02;;;;;;;;;;;3.00;99.90;;;;;;5039425;28;19917;-80
2022/11/30 03:13:28;;;;;;;;;;;3.00;99.90;;;;;;5039503;28;19917;-81
2022/11/30 03:15:54;;;;;;;;;;;3.00;99.90;;;;;;5056187;28;19960;-80
2022/11/30 03:18:19;;;;;;;;;;;3.00;99.90;;;;;;5039082;28;19959;-81
2022/11/30 03:20:45;;;;;;;;;;;3.00;99.90;;;;;;5057399;28;19959;-81
2022/11/30 03:23:11;;;;;;;;;;;2.90;99.90;;;;;;5023100;28;19962;-80
2022/11/30 03:25:36;;;;;;;;;;;3.00;99.90;;;;;;5039636;28;19951;-81
2022/11/30 03:28:02;;;;;;;;;;;3.00;99.90;;;;;;5038885;28;20226;-80
2022/11/30 03:30:27;;;;;;;;;;;3.00;99.90;;;;;;5039082;28;20351;-80
2022/11/30 03:32:53;;;;;;;;;;;3.00;99.90;;;;;;5038845;28;19924;-80
2022/11/30 03:35:18;;;;;;;;;;;3.00;99.90;;;;;;5038961;28;19948;-81
2022/11/30 03:37:44;;;;;;;;;;;3.00;99.90;;;;;;5038577;28;19970;-80
2022/11/30 03:40:10;;;;;;;;;;;3.00;99.90;;;;;;5038647;28;19916;-80
2022/11/30 03:42:36;;;;;;;;;;;3.00;99.90;;;;;;5038534;28;19966;-80
2022/11/30 03:45:01;;;;;;;;;;;3.00;99.90;;;;;;5038884;28;19913;-80
2022/11/30 03:47:27;;;;;;;;;;;3.00;99.90;;;;;;5022121;28;19913;-80
2022/11/30 03:49:52;;;;;;;;;;;3.00;99.90;;;;;;5021707;28;19948;-79
2022/11/30 03:52:18;;;;;;;;;;;3.00;99.90;;;;;;5009358;28;19925;-81
2022/11/30 03:54:43;;;;;;;;;;;3.00;99.90;;;;;;5018568;28;19917;-80
2022/11/30 03:57:09;;;;;;;;;;;3.00;99.90;;;;;;5035128;28;19913;-80
2022/11/30 03:59:34;;;;;;;;;;;3.00;99.90;;;;;;5035334;28;19914;-80
2022/11/30 04:02:00;;;;;;;;;;;3.00;99.90;;;;;;5055948;28;19919;-80
2022/11/30 04:04:26;;;;;;;;;;;3.00;99.90;;;;;;5064987;28;19912;-80
2022/11/30 04:06:51;;;;;;;;;;;3.00;99.90;;;;;;5056773;28;19913;-81
2022/11/30 04:09:17;;;;;;;;;;;3.00;99.90;;;;;;5045790;28;19927;-81
2022/11/30 04:11:42;;;;;;;;;;;3.00;99.90;;;;;;5058083;28;20019;-80
2022/11/30 04:14:08;;;;;;;;;;;3.00;99.90;;;;;;5039533;28;19952;-80
2022/11/30 04:16:34;;;;;;;;;;;3.00;99.90;;;;;;5038431;28;20000;-80
2022/11/30 04:19:00;;;;;;;;;;;3.00;99.90;;;;;;5038248;28;20400;-80
2022/11/30 04:21:25;;;;;;;;;;;3.00;99.90;;;;;;5016592;28;19914;-79
2022/11/30 04:23:51;;;;;;;;;;;3.00;99.90;;;;;;5037916;28;20016;-80
2022/11/30 04:26:17;;;;;;;;;;;2.90;99.90;;;;;;5036573;28;19914;-80
2022/11/30 04:28:42;;;;;;;;;;;3.00;99.90;;;;;;5019202;28;20321;-79
2022/11/30 04:31:08;;;;;;;;;;;3.00;99.90;;;;;;5035536;28;19913;-80
2022/11/30 04:33:34;;;;;;;;;;;3.00;99.90;;;;;;5018672;28;19975;-79
2022/11/30 04:36:01;;;;;;;;;;;3.00;99.90;;;;;;5035787;28;19913;-80
2022/11/30 04:38:27;;;;;;;;;;;3.00;99.90;;;;;;5036641;28;19909;-80
2022/11/30 04:40:52;;;;;;;;;;;3.00;99.90;;;;;;5036580;28;19923;-79
2022/11/30 04:43:18;;;;;;;;;;;3.00;99.90;;;;;;5031823;28;19908;-80
2022/11/30 04:45:44;;;;;;;;;;;3.00;99.90;;;;;;5039873;28;20007;-80
2022/11/30 04:48:11;;;;;;;;;;;3.00;99.90;;;;;;5056459;28;19999;-81
2022/11/30 04:50:36;;;;;;;;;;;3.00;99.90;;;;;;5057407;28;19941;-81
2022/11/30 04:53:02;;;;;;;;;;;2.90;99.90;;;;;;5004417;28;20003;-80
2022/11/30 04:55:27;;;;;;;;;;;3.00;99.90;;;;;;5018960;28;19956;-80
2022/11/30 04:57:53;;;;;;;;;;;3.00;99.90;;;;;;5035531;28;19920;-80
2022/11/30 05:00:19;;;;;;;;;;;3.00;99.90;;;;;;5035413;28;20062;-80
2022/11/30 05:02:44;;;;;;;;;;;2.90;99.90;;;;;;5019784;28;19917;-82
2022/11/30 05:05:10;;;;;;;;;;;2.90;99.90;;;;;;5035609;28;19916;-80
2022/11/30 05:07:36;;;;;;;;;;;2.90;99.90;;;;;;5048530;28;19913;-80
2022/11/30 05:10:02;;;;;;;;;;;2.90;99.90;;;;;;5046349;28;19913;-81
2022/11/30 05:12:28;;;;;;;;;;;2.90;99.90;;;;;;5044465;28;20333;-80
2022/11/30 05:14:54;;;;;;;;;;;2.90;99.90;;;;;;5043766;28;19962;-80
2022/11/30 05:17:19;;;;;;;;;;;2.90;99.90;;;;;;5057350;28;20292;-80
2022/11/30 05:19:45;;;;;;;;;;;2.90;99.90;;;;;;5076354;28;20262;-80
2022/11/30 05:22:10;;;;;;;;;;;2.90;99.90;;;;;;5064739;28;20250;-81
2022/11/30 05:24:36;;;;;;;;;;;2.90;99.90;;;;;;5038582;28;19913;-80
2022/11/30 05:27:01;;;;;;;;;;;2.90;99.90;;;;;;5056342;28;19913;-81
2022/11/30 05:29:27;;;;;;;;;;;2.90;99.90;;;;;;5037163;28;19913;-81
2022/11/30 05:31:52;;;;;;;;;;;2.90;99.90;;;;;;5037192;28;19920;-81
2022/11/30 05:34:18;;;;;;;;;;;2.90;99.90;;;;;;5055136;28;19955;-81
2022/11/30 05:36:43;;;;;;;;;;;2.90;99.90;;;;;;5021350;28;20083;-81
2022/11/30 05:39:09;;;;;;;;;;;2.90;99.90;;;;;;5041159;28;20434;-80
2022/11/30 05:41:34;;;;;;;;;;;2.80;99.90;;;;;;5043630;28;19913;-80
2022/11/30 05:44:00;;;;;;;;;;;2.80;99.90;;;;;;5060496;28;19913;-81
2022/11/30 05:46:26;;;;;;;;;;;2.80;99.90;;;;;;5026471;28;19963;-80
2022/11/30 05:48:51;;;;;;;;;;;2.80;99.90;;;;;;5042794;28;19944;-81
2022/11/30 05:51:18;;;;;;;;;;;2.80;99.90;;;;;;5038336;28;19920;-80
2022/11/30 05:53:44;;;;;;;;;;;2.80;99.90;;;;;;5035846;28;20258;-80
2022/11/30 05:56:11;;;;;;;;;;;2.80;99.90;;;;;;5038647;28;19994;-80
2022/11/30 05:58:37;;;;;;;;;;;2.80;99.90;;;;;;5070521;28;19970;-80
2022/11/30 06:01:03;;;;;;;;;;;2.90;99.90;;;;;;5045842;28;20365;-81
2022/11/30 06:03:29;;;;;;;;;;;2.80;99.90;;;;;;5028873;28;19923;-80
2022/11/30 06:05:55;;;;;;;;;;;2.80;99.90;;;;;;5068449;28;19962;-80
2022/11/30 06:08:20;;;;;;;;;;;2.80;99.90;;;;;;5036304;28;19925;-80
2022/11/30 06:10:46;;;;;;;;;;;2.80;99.90;;;;;;5052285;28;19916;-81
2022/11/30 06:13:12;;;;;;;;;;;2.80;99.90;;;;;;5070934;28;19918;-80
2022/11/30 06:15:38;;;;;;;;;;;2.80;99.90;;;;;;5062699;28;19955;-80
2022/11/30 06:18:04;;;;;;;;;;;2.80;99.90;;;;;;5080488;28;19916;-80
2022/11/30 06:20:30;;;;;;;;;;;2.80;99.90;;;;;;5062504;28;19963;-80
2022/11/30 06:22:56;;;;;;;;;;;2.80;99.90;;;;;;5044715;28;20392;-80
2022/11/30 06:25:22;;;;;;;;;;;2.80;99.90;;;;;;5060559;28;20323;-79
2022/11/30 06:27:47;;;;;;;;;;;2.80;99.90;;;;;;5042417;28;19913;-80
2022/11/30 06:30:13;;;;;;;;;;;2.70;99.90;;;;;;5025814;28;19939;-80
2022/11/30 06:32:39;;;;;;;;;;;2.70;99.90;;;;;;5060361;28;19921;-80
2022/11/30 06:35:04;;;;;;;;;;;2.70;99.90;;;;;;5042027;28;20258;-80
2022/11/30 06:37:32;;;;;;;;;;;2.70;99.90;;;;;;5042430;28;20368;-80
2022/11/30 06:39:58;;;;;;;;;;;2.70;99.90;;;;;;5042403;28;19916;-81
2022/11/30 06:42:23;;;;;;;;;;;2.70;99.90;;;;;;5026195;28;19917;-81
2022/11/30 06:44:49;;;;;;;;;;;2.70;99.90;;;;;;5031375;28;19920;-81
2022/11/30 06:47:15;;;;;;;;;;;2.70;99.90;;;;;;5023935;28;19921;-81
2022/11/30 06:49:40;;;;;;;;;;;2.60;99.90;;;;;;5041521;28;20431;-79
2022/11/30 06:52:06;;;;;;;;;;;2.60;99.90;;;;;;5048087;28;19916;-80
2022/11/30 06:54:31;;;;;;;;;;;2.60;99.90;;;;;;5024505;28;19913;-81
2022/11/30 06:56:57;;;;;;;;;;;2.60;99.90;;;;;;5023738;28;19912;-81
2022/11/30 06:59:22;;;;;;;;;;;2.60;99.90;;;;;;5024102;28;20023;-81
2022/11/30 07:01:48;;;;;;;;;;;2.60;99.90;;;;;;5041444;28;19963;-81
2022/11/30 07:04:13;;;;;;;;;;;2.60;99.90;;;;;;5069127;28;19917;-80
2022/11/30 07:06:39;;;;;;;;;;;2.60;99.90;;;;;;5070192;28;19920;-81
2022/11/30 07:09:05;;;;;;;;;;;2.60;99.90;;;;;;5051728;28;20024;-81
2022/11/30 07:11:32;;;;;;;;;;;2.50;99.90;;;;;;5050934;28;20408;-81
2022/11/30 07:13:57;;;;;;;;;;;2.60;99.90;;;;;;5056064;28;19944;-80
2022/11/30 07:16:23;;;;;;;;;;;2.60;99.90;;;;;;5040469;28;19917;-80
2022/11/30 07:18:48;;;;;;;;;;;2.60;99.90;;;;;;5040591;28;19928;-81
2022/11/30 07:21:14;;;;;;;;;;;2.70;99.90;;;;;;5040452;28;19917;-81
2022/11/30 07:26:24;;;;;;;;;;;2.70;99.90;;;;;;5053256;28;19961;-80
2022/11/30 07:28:53;;;;;;;;;;;2.70;99.90;;;;;;5062229;28;19920;-81
2022/11/30 07:31:20;;;;;;;;;;;2.70;99.90;;;;;;5074228;28;19909;-81
2022/11/30 07:33:46;;;;;;;;;;;2.70;99.90;;;;;;5077447;28;19997;-81
2022/11/30 07:36:12;;;;;;;;;;;2.70;99.90;;;;;;5075388;28;19909;-81
2022/11/30 07:38:38;;;;;;;;;;;2.70;99.90;;;;;;5064637;28;19966;-81
2022/11/30 07:41:03;;;;;;;;;;;2.70;99.90;;;;;;5066609;28;19999;-81
2022/11/30 07:43:29;;;;;;;;;;;2.70;99.90;;;;;;5065620;28;20308;-80
2022/11/30 07:45:55;;;;;;;;;;;2.70;99.90;;;;;;5067412;28;20356;-81
2022/11/30 07:48:21;;;;;;;;;;;2.80;99.90;;;;;;5058829;28;19936;-80
2022/11/30 07:50:47;;;;;;;;;;;2.70;99.90;;;;;;5057510;28;19909;-81
2022/11/30 07:53:13;;;;;;;;;;;2.70;99.90;;;;;;5057634;28;20007;-81
2022/11/30 07:55:38;;;;;;;;;;;2.80;99.90;;;;;;5039298;28;20410;-81
2022/11/30 07:58:04;;;;;;;;;;;2.80;99.90;;;;;;5058039;28;19923;-81
2022/11/30 08:00:29;;;;;;;;;;;2.80;99.90;;;;;;5039738;28;19920;-81
2022/11/30 08:02:55;;;;;;;;;;;2.80;99.90;;;;;;5039898;28;19919;-81
2022/11/30 08:05:23;;;;;;;;;;;2.80;99.90;;;;;;5039629;28;19956;-82
2022/11/30 08:07:50;;;;;;;;;;;2.80;99.90;;;;;;5043900;28;19948;-81
2022/11/30 08:10:15;;;;;;;;;;;2.90;99.90;;;;;;5051277;28;19912;-81
2022/11/30 08:12:41;;;;;;;;;;;2.90;99.90;;;;;;5052822;28;20331;-81
2022/11/30 08:15:06;;;;;;;;;;;2.90;99.90;;;;;;5034948;28;19977;-81
2022/11/30 08:17:32;;;;;;;;;;;2.90;99.90;;;;;;5060801;28;19935;-81
2022/11/30 08:19:57;;;;;;;;;;;2.90;99.90;;;;;;5057715;28;19909;-81
2022/11/30 08:22:23;;;;;;;;;;;2.90;99.90;;;;;;5027700;28;19916;-81
2022/11/30 08:24:48;;;;;;;;;;;2.90;99.90;;;;;;5039262;28;19934;-81
2022/11/30 08:27:14;;;;;;;;;;;2.90;99.90;;;;;;5022678;28;19921;-81
2022/11/30 08:29:39;;;;;;;;;;;2.90;99.90;;;;;;5039197;28;19920;-81
2022/11/30 08:32:05;;;;;;;;;;;3.00;99.90;;;;;;5039548;28;19923;-81
2022/11/30 08:34:31;;;;;;;;;;;2.90;99.90;;;;;;5022355;28;19913;-81
2022/11/30 08:36:57;;;;;;;;;;;3.00;99.90;;;;;;5039035;28;19944;-81
2022/11/30 08:39:22;;;;;;;;;;;3.00;99.90;;;;;;5056744;28;19920;-80
2022/11/30 08:41:48;;;;;;;;;;;3.00;99.90;;;;;;5038831;28;19912;-81
2022/11/30 08:44:14;;;;;;;;;;;3.00;99.90;;;;;;5022227;28;19913;-81
2022/11/30 08:46:39;;;;;;;;;;;3.00;99.90;;;;;;5038471;28;19966;-81
2022/11/30 08:49:05;;;;;;;;;;;3.00;99.90;;;;;;5056147;28;19909;-81
2022/11/30 08:51:30;;;;;;;;;;;3.10;99.90;;;;;;5035398;28;19921;-81
2022/11/30 08:53:57;;;;;;;;;;;3.10;99.90;;;;;;5044337;28;20003;-80
2022/11/30 08:56:22;;;;;;;;;;;3.20;99.90;;;;;;5048448;28;20365;-79
2022/11/30 08:58:48;;;;;;;;;;;3.20;99.90;;;;;;5046203;28;19913;-81
2022/11/30 09:01:15;;;;;;;;;;;3.20;99.90;;;;;;5050855;28;19919;-82
2022/11/30 09:03:41;;;;;;;;;;;3.20;99.90;;;;;;5068986;28;19922;-81
2022/11/30 09:06:13;;;;;;;;;;;3.20;99.90;;;;;;5049251;28;19943;-82
2022/11/30 09:08:40;;;;;;;;;;;3.20;99.90;;;;;;5039958;28;19921;-79
2022/11/30 09:11:09;;;;;;;;;;;3.30;99.90;;;;;;5066894;28;20028;-81
2022/11/30 09:13:35;;;;;;;;;;;3.30;99.90;;;;;;5073961;28;19942;-81
2022/11/30 09:16:01;;;;;;;;;;;3.30;99.90;;;;;;5055416;28;19917;-82
2022/11/30 09:18:26;;;;;;;;;;;3.40;99.90;;;;;;5063964;28;19908;-80
2022/11/30 09:20:53;;;;;;;;;;;3.40;99.90;;;;;;5027375;28;19921;-81
2022/11/30 09:23:19;;;;;;;;;;;3.50;99.90;;;;;;5049667;28;19913;-80
2022/11/30 09:25:44;;;;;;;;;;;3.60;99.90;;;;;;5067022;28;19942;-80
2022/11/30 09:28:10;;;;;;;;;;;3.70;99.90;;;;;;5066390;28;20005;-80
2022/11/30 09:30:35;;;;;;;;;;;3.70;99.90;;;;;;5052364;28;19913;-81
2022/11/30 09:33:01;;;;;;;;;;;3.80;99.90;;;;;;5068993;28;19916;-82
2022/11/30 09:35:26;;;;;;;;;;;3.80;99.90;;;;;;5033988;28;19924;-82
2022/11/30 09:37:52;;;;;;;;;;;3.80;99.90;;;;;;5022128;28;19920;-82
2022/11/30 09:40:20;;;;;;;;;;;3.80;99.90;;;;;;5057822;28;19913;-81
2022/11/30 09:42:54;;;;;;;;;;;3.80;99.90;;;;;;5063852;28;19977;-82
2022/11/30 09:45:27;;;;;;;;;;;3.80;99.90;;;;;;5061995;28;19909;-82
2022/11/30 09:47:52;;;;;;;;;;;3.80;99.90;;;;;;5056279;28;19916;-82
2022/11/30 09:50:23;;;;;;;;;;;3.80;99.90;;;;;;5039472;28;19909;-83
2022/11/30 09:52:57;;;;;;;;;;;3.80;99.90;;;;;;5039872;28;19947;-82
2022/11/30 09:55:27;;;;;;;;;;;3.80;99.90;;;;;;5036615;28;19932;-81
2022/11/30 09:57:55;;;;;;;;;;;3.70;99.90;;;;;;5053917;28;19912;-82
2022/11/30 10:00:22;;;;;;;;;;;3.70;99.90;;;;;;5062130;28;19916;-82
2022/11/30 10:02:48;;;;;;;;;;;3.70;99.90;;;;;;5058876;28;19908;-81
2022/11/30 10:05:26;;;;;;;;;;;3.70;99.90;;;;;;5077705;28;20509;-82
2022/11/30 10:07:55;;;;;;;;;;;3.70;99.90;;;;;;5058549;28;19916;-82
2022/11/30 10:10:26;;;;;;;;;;;3.80;99.90;;;;;;5078063;28;20007;-82
2022/11/30 10:12:57;;;;;;;;;;;3.80;99.90;;;;;;5076536;28;19920;-82
2022/11/30 10:15:49;;;;;;;;;;;3.80;99.90;;;;;;5042815;28;19909;-82
2022/11/30 10:18:21;;;;;;;;;;;3.80;99.90;;;;;;5040141;28;19913;-82
2022/11/30 10:21:01;;;;;;;;;;;3.80;99.90;;;;;;5056091;28;20015;-82
2022/11/30 10:23:36;;;;;;;;;;;3.80;99.90;;;;;;5035173;28;20376;-82
2022/11/30 10:26:13;;;;;;;;;;;3.80;99.90;;;;;;5046026;28;19917;-82
2022/11/30 10:28:52;;;;;;;;;;;3.80;99.90;;;;;;5065899;28;19999;-82
2022/11/30 10:31:19;;;;;;;;;;;3.80;99.90;;;;;;5071332;28;20369;-82
2022/11/30 10:33:49;;;;;;;;;;;3.80;99.90;;;;;;5062472;28;19922;-82
2022/11/30 10:36:18;;;;;;;;;;;3.90;99.90;;;;;;5061959;28;19918;-81
2022/11/30 10:38:46;;;;;;;;;;;3.90;99.90;;;;;;5079544;28;19908;-82
2022/11/30 10:41:29;;;;;;;;;;;4.00;99.90;;;;;;5078948;28;19913;-81
2022/11/30 10:44:01;;;;;;;;;;;4.00;99.90;;;;;;5076574;28;20441;-83
2022/11/30 10:46:29;;;;;;;;;;;4.00;99.90;;;;;;5059288;28;20288;-81
2022/11/30 10:48:58;;;;;;;;;;;4.00;99.90;;;;;;5041716;28;19913;-82
2022/11/30 10:51:24;;;;;;;;;;;4.00;99.90;;;;;;5043225;28;19955;-82
2022/11/30 10:53:50;;;;;;;;;;;4.00;99.90;;;;;;5058178;28;19917;-82
2022/11/30 10:56:15;;;;;;;;;;;4.00;99.90;;;;;;5057859;28;19919;-80
2022/11/30 10:58:57;;;;;;;;;;;4.10;99.90;;;;;;5060114;28;20338;-82
2022/11/30 11:01:33;;;;;;;;;;;4.10;99.90;;;;;;5061314;28;19916;-82
2022/11/30 11:04:07;;;;;;;;;;;4.10;99.90;;;;;;5020925;28;19941;-82
2022/11/30 11:06:33;;;;;;;;;;;4.20;99.90;;;;;;5039121;28;19944;-82
2022/11/30 11:09:19;;;;;;;;;;;4.20;99.90;;;;;;5020710;28;19928;-82
2022/11/30 11:11:44;;;;;;;;;;;4.20;99.90;;;;;;5038517;28;19913;-82
2022/11/30 11:14:14;;;;;;;;;;;4.20;99.90;;;;;;5045209;28;19920;-82
2022/11/30 11:16:52;;;;;;;;;;;4.20;99.90;;;;;;5040295;28;19909;-82
2022/11/30 11:19:35;;;;;;;;;;;4.10;99.90;;;;;;5040574;28;19908;-82
2022/11/30 11:22:03;;;;;;;;;;;4.10;99.90;;;;;;5048401;28;19963;-82
2022/11/30 11:24:28;;;;;;;;;;;4.10;99.90;;;;;;5020273;28;19916;-82
2022/11/30 11:26:55;;;;;;;;;;;4.10;99.90;;;;;;5036937;28;20016;-82
2022/11/30 11:29:30;;;;;;;;;;;4.10;99.90;;;;;;5020241;28;19925;-82
2022/11/30 11:32:16;;;;;;;;;;;4.10;99.90;;;;;;5044736;28;20322;-82
2022/11/30 11:34:42;;;;;;;;;;;4.10;99.90;;;;;;5063356;28;20287;-82
2022/11/30 11:37:32;;;;;;;;;;;4.10;99.90;;;;;;5056103;28;19917;-82
2022/11/30 11:40:02;;;;;;;;;;;4.00;99.90;;;;;;5076947;28;19908;-81
2022/11/30 11:42:37;;;;;;;;;;;4.00;99.90;;;;;;5058216;28;19909;-82
2022/11/30 11:45:03;;;;;;;;;;;4.00;99.90;;;;;;5063345;28;19909;-80
2022/11/30 11:47:37;;;;;;;;;;;4.00;99.90;;;;;;5056228;28;19916;-82
2022/11/30 11:50:04;;;;;;;;;;;4.00;99.90;;;;;;5039151;28;20296;-80
2022/11/30 11:52:30;;;;;;;;;;;3.90;99.90;;;;;;5056198;28;20276;-81
2022/11/30 11:54:57;;;;;;;;;;;3.90;99.90;;;;;;5056672;28;20043;-81
2022/11/30 11:57:30;;;;;;;;;;;3.90;99.90;;;;;;5056187;28;19908;-81
2022/11/30 12:00:01;;;;;;;;;;;3.90;99.90;;;;;;5056194;28;19916;-80
2022/11/30 12:02:26;;;;;;;;;;;3.90;99.90;;;;;;5055384;28;20420;-81
2022/11/30 12:04:55;;;;;;;;;;;3.90;99.90;;;;;;5056084;28;19959;-82
2022/11/30 12:07:20;;;;;;;;;;;4.00;99.90;;;;;;5057306;28;19962;-80
2022/11/30 12:10:01;;;;;;;;;;;4.00;99.90;;;;;;5049079;28;20307;-80
2022/11/30 12:12:27;;;;;;;;;;;4.00;99.90;;;;;;5076019;28;19912;-82
2022/11/30 12:14:54;;;;;;;;;;;3.90;99.90;;;;;;5064086;28;20011;-81
2022/11/30 12:17:19;;;;;;;;;;;3.90;99.90;;;;;;5057859;28;19913;-81
2022/11/30 12:19:48;;;;;;;;;;;3.90;99.90;;;;;;5047611;28;19959;-81
2022/11/30 12:22:22;;;;;;;;;;;3.80;99.90;;;;;;5038134;28;20331;-81
2022/11/30 12:25:06;;;;;;;;;;;3.80;99.90;;;;;;5038201;28;19909;-81
2022/11/30 12:27:35;;;;;;;;;;;3.80;99.90;;;;;;5039124;28;20226;-81
2022/11/30 12:30:30;;;;;;;;;;;3.80;99.90;;;;;;5055613;28;19909;-80
2022/11/30 12:33:21;;;;;;;;;;;3.80;99.90;;;;;;5002024;28;19920;-81
2022/11/30 12:35:47;;;;;;;;;;;3.80;99.90;;;;;;5056987;28;19912;-81
2022/11/30 12:38:22;;;;;;;;;;;3.80;99.90;;;;;;5047865;28;20342;-81
2022/11/30 12:40:54;;;;;;;;;;;3.80;99.90;;;;;;5047023;28;19961;-81
2022/11/30 12:43:32;;;;;;;;;;;3.90;99.90;;;;;;5075638;28;19915;-81
2022/11/30 12:46:18;;;;;;;;;;;3.80;99.90;;;;;;5017581;28;19916;-80
2022/11/30 12:49:07;;;;;;;;;;;3.80;99.90;;;;;;5013339;28;19909;-81
2022/11/30 12:51:36;;;;;;;;;;;3.80;99.90;;;;;;5041530;28;20217;-83
2022/11/30 12:54:31;;;;;;;;;;;3.90;99.90;;;;;;5055036;28;19955;-82
2022/11/30 12:57:05;;;;;;;;;;;3.80;99.90;;;;;;5048576;28;19915;-82
2022/11/30 12:59:33;;;;;;;;;;;3.90;99.90;;;;;;5066192;28;19934;-81
2022/11/30 13:02:11;;;;;;;;;;;3.80;99.90;;;;;;5056070;28;19915;-82
2022/11/30 13:04:36;;;;;;;;;;;3.80;99.90;;;;;;5048005;28;20287;-81
2022/11/30 13:07:07;;;;;;;;;;;3.90;99.90;;;;;;5042854;28;20003;-81
2022/11/30 13:09:39;;;;;;;;;;;3.80;99.90;;;;;;5055124;28;19924;-82
2022/11/30 13:12:16;;;;;;;;;;;3.80;99.90;;;;;;5037215;28;20380;-82
2022/11/30 13:14:41;;;;;;;;;;;3.80;99.90;;;;;;5054417;28;19909;-79
2022/11/30 13:17:14;;;;;;;;;;;3.80;99.90;;;;;;5054536;28;19916;-81
2022/11/30 13:19:43;;;;;;;;;;;3.80;99.90;;;;;;5058922;28;19908;-81
2022/11/30 13:22:16;;;;;;;;;;;3.70;99.90;;;;;;5060415;28;19909;-83
2022/11/30 13:24:45;;;;;;;;;;;3.70;99.90;;;;;;5058863;28;19913;-81
2022/11/30 13:27:40;;;;;;;;;;;3.70;99.90;;;;;;5062728;28;19912;-82
2022/11/30 13:30:15;;;;;;;;;;;3.70;99.90;;;;;;5032770;28;19931;-82
2022/11/30 13:32:41;;;;;;;;;;;3.70;99.90;;;;;;5073122;28;19912;-81
2022/11/30 13:35:30;;;;;;;;;;;3.60;99.90;;;;;;5057409;28;20387;-82
2022/11/30 13:38:13;;;;;;;;;;;3.70;99.90;;;;;;5064474;28;19974;-82
2022/11/30 13:40:38;;;;;;;;;;;3.60;99.90;;;;;;5070413;28;19920;-82
2022/11/30 13:43:04;;;;;;;;;;;3.60;99.90;;;;;;5063095;28;20292;-81
2022/11/30 13:45:31;;;;;;;;;;;3.70;99.90;;;;;;5061683;28;19949;-81
2022/11/30 13:47:57;;;;;;;;;;;3.70;99.90;;;;;;5074441;28;20280;-81
2022/11/30 13:50:23;;;;;;;;;;;3.60;99.90;;;;;;5054663;28;20000;-82
2022/11/30 13:53:01;;;;;;;;;;;3.70;99.90;;;;;;5045373;28;19938;-81
2022/11/30 13:55:42;;;;;;;;;;;3.60;99.90;;;;;;5042259;28;19909;-81
2022/11/30 13:58:09;;;;;;;;;;;3.70;99.90;;;;;;5063817;28;20097;-82
2022/11/30 14:00:34;;;;;;;;;;;3.60;99.90;;;;;;5048594;28;19958;-81
2022/11/30 14:03:22;;;;;;;;;;;3.70;99.90;;;;;;5049833;28;19908;-81
2022/11/30 14:05:50;;;;;;;;;;;3.70;99.90;;;;;;5065520;28;20007;-82
2022/11/30 14:08:29;;;;;;;;;;;3.70;99.90;;;;;;5056863;28;19927;-80
2022/11/30 14:11:14;;;;;;;;;;;3.70;99.90;;;;;;5049828;28;20005;-81
2022/11/30 14:13:40;;;;;;;;;;;3.70;99.90;;;;;;5066753;28;19912;-81
2022/11/30 14:16:20;;;;;;;;;;;3.70;99.90;;;;;;5065394;28;19908;-81
2022/11/30 14:18:46;;;;;;;;;;;3.70;99.90;;;;;;5049928;28;19942;-81
2022/11/30 14:21:13;;;;;;;;;;;3.70;99.90;;;;;;5043257;28;19924;-80
2022/11/30 14:23:46;;;;;;;;;;;3.70;99.90;;;;;;5062293;28;19909;-82
2022/11/30 14:26:13;;;;;;;;;;;3.60;99.90;;;;;;5068279;28;19909;-81
2022/11/30 14:28:42;;;;;;;;;;;3.60;99.90;;;;;;5059476;28;19908;-81
2022/11/30 14:31:13;;;;;;;;;;;3.70;99.90;;;;;;5076996;28;19908;-81
2022/11/30 14:33:42;;;;;;;;;;;3.60;99.90;;;;;;5076995;28;20010;-81
2022/11/30 14:36:09;;;;;;;;;;;3.70;99.90;;;;;;5059310;28;19977;-82
2022/11/30 14:38:37;;;;;;;;;;;3.70;99.90;;;;;;5076982;28;19916;-81